Time;durP1;ratioP1;P1;durP2;ratioP2;P2;SDS_P1;SDS_P2;PMS_P1;PMS_P2;Temp;Humidity;BMP_temperature;BMP_pressure;BME280_temperature;BME280_humidity;BME280_pressure;Samples;Min_cycle;Max_cycle;Signal;HPM_P1;HPM_P2
2023/04/21 00:01:38;;;;;;;8.10;6.07;;;;;;;9.01;100.00;100510.28;5055835;28;20044;-69
2023/04/21 00:04:04;;;;;;;9.63;6.40;;;;;;;9.04;100.00;100500.44;5070082;28;20025;-69
2023/04/21 00:06:30;;;;;;;8.90;5.70;;;;;;;9.03;100.00;100497.97;5069687;28;20036;-69
2023/04/21 00:08:55;;;;;;;7.72;5.97;;;;;;;9.05;100.00;100493.47;5060854;28;20061;-69
2023/04/21 00:11:21;;;;;;;8.48;6.28;;;;;;;9.09;100.00;100500.06;5066885;28;20028;-69
2023/04/21 00:13:46;;;;;;;7.97;6.63;;;;;;;9.14;100.00;100492.69;5071821;28;20032;-70
2023/04/21 00:16:12;;;;;;;9.82;6.50;;;;;;;9.18;100.00;100494.06;5083814;28;20451;-68
2023/04/21 00:18:37;;;;;;;6.75;5.80;;;;;;;9.19;100.00;100504.31;5069267;28;20119;-69
2023/04/21 00:21:03;;;;;;;6.60;5.53;;;;;;;9.23;100.00;100494.47;5065001;28;20085;-69
2023/04/21 00:23:28;;;;;;;8.40;6.35;;;;;;;9.26;100.00;100491.59;5069673;28;20108;-69
2023/04/21 00:25:54;;;;;;;10.23;6.80;;;;;;;9.28;100.00;100498.31;5069711;28;20025;-69
2023/04/21 00:28:19;;;;;;;7.35;6.65;;;;;;;9.38;100.00;100494.91;5071771;28;20107;-69
2023/04/21 00:30:45;;;;;;;7.72;6.38;;;;;;;9.38;100.00;100495.72;5076078;28;20044;-69
2023/04/21 00:33:10;;;;;;;8.43;6.15;;;;;;;9.40;100.00;100493.81;5071164;28;20062;-69
2023/04/21 00:35:36;;;;;;;7.72;6.18;;;;;;;9.40;100.00;100488.63;5071124;28;20389;-69
2023/04/21 00:38:01;;;;;;;8.52;6.18;;;;;;;9.40;100.00;100480.81;5064173;28;20029;-69
2023/04/21 00:40:26;;;;;;;8.10;6.45;;;;;;;9.42;100.00;100485.88;5069408;28;20123;-69
2023/04/21 00:42:52;;;;;;;6.90;6.20;;;;;;;9.45;100.00;100496.00;5064009;28;20036;-69
2023/04/21 00:45:17;;;;;;;8.18;6.53;;;;;;;9.43;100.00;100490.94;5061449;28;20043;-69
2023/04/21 00:47:43;;;;;;;8.70;5.55;;;;;;;9.47;100.00;100492.28;5068804;28;20112;-69
2023/04/21 00:50:10;;;;;;;8.10;5.93;;;;;;;9.52;100.00;100486.66;5070665;28;20107;-69
2023/04/21 00:52:37;;;;;;;11.02;5.28;;;;;;;9.61;100.00;100480.66;5064746;28;20057;-69
2023/04/21 00:55:03;;;;;;;7.78;5.70;;;;;;;9.68;100.00;100499.13;5066604;28;20040;-69
2023/04/21 00:57:31;;;;;;;7.68;5.20;;;;;;;9.70;100.00;100494.63;5068872;28;20071;-69
2023/04/21 00:59:56;;;;;;;8.00;5.07;;;;;;;9.72;100.00;100495.31;5062178;28;20507;-69
2023/04/21 01:02:22;;;;;;;9.60;5.35;;;;;;;9.75;100.00;100492.44;5071373;28;20028;-69
2023/04/21 01:04:47;;;;;;;5.55;4.85;;;;;;;9.78;100.00;100487.78;5068201;28;20051;-69
2023/04/21 01:07:13;;;;;;;6.25;4.15;;;;;;;9.86;100.00;100479.28;5071745;28;20036;-69
2023/04/21 01:09:39;;;;;;;4.43;3.53;;;;;;;10.50;100.00;100481.97;5070611;28;20057;-69
2023/04/21 01:12:09;;;;;;;5.18;4.05;;;;;;;10.54;100.00;100478.13;5063400;28;20040;-69
2023/04/21 01:14:36;;;;;;;8.77;4.28;;;;;;;10.48;100.00;100470.06;5061765;28;20074;-69
2023/04/21 01:17:04;;;;;;;9.50;4.85;;;;;;;10.34;100.00;100475.75;5060568;28;20055;-69
2023/04/21 01:19:33;;;;;;;8.00;4.75;;;;;;;10.23;100.00;100461.94;5067229;28;20025;-69
2023/04/21 01:21:59;;;;;;;8.50;5.22;;;;;;;10.14;100.00;100467.13;5066607;28;20090;-69
2023/04/21 01:24:35;;;;;;;7.22;4.97;;;;;;;10.14;100.00;100467.13;5049813;28;20024;-68
2023/04/21 01:27:00;;;;;;;5.80;5.05;;;;;;;10.12;100.00;100469.06;5066979;28;20082;-69
2023/04/21 01:29:26;;;;;;;8.27;4.63;;;;;;;10.07;100.00;100466.88;5051370;28;20045;-69
2023/04/21 01:31:51;;;;;;;4.95;4.15;;;;;;;10.06;100.00;100460.03;5066813;28;20035;-69
2023/04/21 01:34:16;;;;;;;6.38;4.80;;;;;;;10.05;100.00;100463.59;5066645;28;20492;-69
2023/04/21 01:36:42;;;;;;;8.15;5.43;;;;;;;10.04;100.00;100456.75;5050407;28;20016;-69
2023/04/21 01:39:07;;;;;;;6.15;5.07;;;;;;;10.02;100.00;100460.44;5067203;28;20555;-68
2023/04/21 01:41:33;;;;;;;5.95;4.05;;;;;;;10.03;100.00;100452.50;5066971;28;20075;-68
2023/04/21 01:43:58;;;;;;;7.05;5.55;;;;;;;10.04;100.00;100453.31;5068182;28;20069;-69
2023/04/21 01:46:24;;;;;;;4.65;4.05;;;;;;;10.01;100.00;100457.03;5065525;28;20392;-69
2023/04/21 01:48:50;;;;;;;8.07;5.03;;;;;;;9.98;100.00;100449.50;5064453;28;20040;-69
2023/04/21 01:51:15;;;;;;;7.15;4.90;;;;;;;9.97;100.00;100442.66;5064913;28;20040;-69
2023/04/21 01:53:40;;;;;;;8.82;5.15;;;;;;;9.92;100.00;100448.28;5063165;28;20028;-69
2023/04/21 01:56:06;;;;;;;6.65;4.63;;;;;;;9.92;100.00;100450.88;5066834;28;20036;-69
2023/04/21 01:58:31;;;;;;;6.43;4.05;;;;;;;9.90;100.00;100442.41;5063517;28;20029;-69
2023/04/21 02:00:57;;;;;;;5.72;4.80;;;;;;;9.90;100.00;100446.81;5065076;28;20038;-69
2023/04/21 02:03:22;;;;;;;9.80;4.60;;;;;;;9.89;100.00;100439.97;5068873;28;20032;-69
2023/04/21 02:05:49;;;;;;;8.02;4.40;;;;;;;9.84;100.00;100449.97;5074179;28;20044;-69
2023/04/21 02:08:16;;;;;;;6.15;4.63;;;;;;;9.81;100.00;100438.06;5066138;28;20495;-69
2023/04/21 02:10:42;;;;;;;5.72;4.03;;;;;;;9.77;100.00;100443.69;5068083;28;20036;-69
2023/04/21 02:13:07;;;;;;;5.43;4.32;;;;;;;9.73;100.00;100437.94;5064459;28;20040;-69
2023/04/21 02:15:32;;;;;;;7.80;4.97;;;;;;;9.68;100.00;100444.50;5068665;28;20025;-69
2023/04/21 02:17:58;;;;;;;5.45;4.95;;;;;;;9.61;100.00;100445.06;5067921;28;20028;-69
2023/04/21 02:20:24;;;;;;;8.68;4.85;;;;;;;9.61;100.00;100444.22;5067693;28;20028;-70
2023/04/21 02:22:50;;;;;;;7.68;4.40;;;;;;;9.64;100.00;100439.56;5060094;28;20028;-69
2023/04/21 02:25:15;;;;;;;5.68;4.50;;;;;;;9.67;100.00;100441.09;5063297;28;20480;-69
2023/04/21 02:27:40;;;;;;;5.80;4.88;;;;;;;9.68;100.00;100440.13;5068920;28;20106;-68
2023/04/21 02:30:06;;;;;;;7.82;5.05;;;;;;;9.67;100.00;100438.47;5052272;28;20048;-69
2023/04/21 02:32:32;;;;;;;6.65;4.78;;;;;;;9.57;100.00;100433.28;5061243;28;20025;-68
2023/04/21 02:34:57;;;;;;;7.05;5.28;;;;;;;9.60;100.00;100445.19;5075558;28;20373;-69
2023/04/21 02:37:23;;;;;;;9.48;4.75;;;;;;;9.61;100.00;100437.25;5068881;28;20033;-69
2023/04/21 02:39:48;;;;;;;6.97;4.90;;;;;;;9.60;100.00;100438.22;5074454;28;20055;-69
2023/04/21 02:42:14;;;;;;;6.28;5.65;;;;;;;9.56;100.00;100436.84;5071112;28;20032;-69
2023/04/21 02:44:39;;;;;;;5.22;4.68;;;;;;;9.53;100.00;100421.50;5064863;28;20107;-70
2023/04/21 02:47:05;;;;;;;10.98;5.68;;;;;;;9.48;100.00;100428.91;5063224;28;20566;-69
2023/04/21 02:49:30;;;;;;;5.20;4.70;;;;;;;9.47;100.00;100429.88;5065692;28;20025;-69
2023/04/21 02:51:57;;;;;;;6.35;5.65;;;;;;;9.47;100.00;100427.25;5059564;28;20143;-69
2023/04/21 02:54:22;;;;;;;8.25;5.82;;;;;;;9.45;100.00;100426.59;5059955;28;20029;-69
2023/04/21 02:56:48;;;;;;;8.32;6.90;;;;;;;9.42;100.00;100434.69;5063148;28;20052;-69
2023/04/21 02:59:15;;;;;;;8.02;6.13;;;;;;;9.42;100.00;100437.28;5067547;28;20034;-69
2023/04/21 03:01:41;;;;;;;8.25;5.63;;;;;;;9.41;100.00;100427.84;5066868;28;20040;-69
2023/04/21 03:04:06;;;;;;;10.63;5.78;;;;;;;9.37;100.00;100436.88;5062433;28;20176;-69
2023/04/21 03:06:32;;;;;;;7.18;6.47;;;;;;;9.32;100.00;100426.88;5069224;28;20101;-69
2023/04/21 03:08:57;;;;;;;7.20;6.50;;;;;;;9.26;100.00;100422.22;5072658;28;20116;-69
2023/04/21 03:11:23;;;;;;;9.20;6.75;;;;;;;9.22;100.00;100423.47;5072184;28;20036;-68
2023/04/21 03:13:48;;;;;;;7.53;5.70;;;;;;;9.16;100.00;100430.97;5067647;28;20028;-68
2023/04/21 03:16:14;;;;;;;8.00;5.85;;;;;;;9.13;100.00;100424.28;5052851;28;20116;-69
2023/04/21 03:18:39;;;;;;;8.82;6.40;;;;;;;9.13;100.00;100428.66;5069968;28;20372;-69
2023/04/21 03:21:05;;;;;;;8.73;6.72;;;;;;;9.18;100.00;100427.28;5070860;28;20136;-68
2023/04/21 03:23:30;;;;;;;9.07;6.70;;;;;;;9.22;100.00;100426.06;5065697;28;20083;-69
2023/04/21 03:25:55;;;;;;;7.82;6.25;;;;;;;9.19;100.00;100422.91;5069251;28;20507;-69
2023/04/21 03:28:21;;;;;;;7.15;6.05;;;;;;;9.18;100.00;100426.47;5067054;28;20040;-69
2023/04/21 03:30:46;;;;;;;6.03;5.47;;;;;;;9.15;100.00;100426.75;5067275;28;20039;-69
2023/04/21 03:33:12;;;;;;;8.27;6.38;;;;;;;9.07;100.00;100431.78;5069587;28;20040;-69
2023/04/21 03:35:37;;;;;;;8.38;7.47;;;;;;;9.06;100.00;100427.53;5066591;28;20025;-69
2023/04/21 03:38:02;;;;;;;6.82;5.90;;;;;;;9.04;100.00;100435.47;5068805;28;20222;-68
2023/04/21 03:40:28;;;;;;;10.52;6.30;;;;;;;9.02;100.00;100431.38;5071177;28;20025;-69
2023/04/21 03:42:54;;;;;;;11.63;7.78;;;;;;;8.97;100.00;100437.81;5071940;28;20469;-69
2023/04/21 03:45:21;;;;;;;10.35;7.28;;;;;;;8.92;100.00;100442.59;5065621;28;20060;-69
2023/04/21 03:47:47;;;;;;;7.75;6.60;;;;;;;8.90;100.00;100454.91;5050410;28;20079;-69
2023/04/21 03:50:13;;;;;;;8.45;6.45;;;;;;;8.92;100.00;100450.41;5066056;28;20131;-69
2023/04/21 03:52:39;;;;;;;10.88;7.35;;;;;;;8.94;100.00;100439.88;5070321;28;20520;-69
2023/04/21 03:55:07;;;;;;;9.98;8.32;;;;;;;8.91;100.00;100446.16;5064235;28;20040;-69
2023/04/21 03:57:33;;;;;;;11.65;7.95;;;;;;;8.88;100.00;100441.22;5065447;28;20108;-69
2023/04/21 03:59:58;;;;;;;8.57;6.55;;;;;;;8.84;100.00;100447.63;5071824;28;20548;-69
2023/04/21 04:02:24;;;;;;;7.82;6.93;;;;;;;8.85;100.00;100446.69;5074228;28;20036;-69
2023/04/21 04:04:49;;;;;;;11.50;7.13;;;;;;;8.85;100.00;100451.06;5068857;28;20072;-68
2023/04/21 04:07:16;;;;;;;7.78;6.45;;;;;;;8.81;100.00;100455.69;5066622;28;20028;-69
2023/04/21 04:09:42;;;;;;;9.88;6.82;;;;;;;8.80;100.00;100453.22;5072969;28;20078;-69
2023/04/21 04:12:08;;;;;;;8.88;7.13;;;;;;;8.82;100.00;100449.56;5071358;28;20137;-69
2023/04/21 04:14:33;;;;;;;14.45;7.93;;;;;;;8.84;100.00;100457.22;5071394;28;20032;-69
2023/04/21 04:16:58;;;;;;;11.07;7.95;;;;;;;8.79;100.00;100452.41;5065457;28;20460;-69
2023/04/21 04:19:30;;;;;;;11.93;7.65;;;;;;;8.78;100.00;100458.56;5070942;28;20069;-69
2023/04/21 04:21:57;;;;;;;8.15;6.05;;;;;;;8.77;100.00;100456.91;5061794;28;20475;-69
2023/04/21 04:24:23;;;;;;;10.55;6.85;;;;;;;8.81;100.00;100457.47;5066747;28;21300;-69
2023/04/21 04:26:48;;;;;;;12.27;6.95;;;;;;;8.82;100.00;100459.13;5070101;28;20033;-69
2023/04/21 04:29:15;;;;;;;10.80;7.63;;;;;;;8.83;100.00;100458.16;5077021;28;20036;-69
2023/04/21 04:31:40;;;;;;;12.00;7.45;;;;;;;8.86;100.00;100469.13;5064047;28;20064;-69
2023/04/21 04:34:06;;;;;;;10.63;7.28;;;;;;;8.88;100.00;100468.97;5065786;28;20056;-69
2023/04/21 04:36:32;;;;;;;11.20;8.05;;;;;;;8.89;100.00;100468.84;5069281;28;20033;-69
2023/04/21 04:38:58;;;;;;;22.85;9.10;;;;;;;8.93;100.00;100472.81;5051348;28;20028;-68
2023/04/21 04:41:23;;;;;;;13.80;7.85;;;;;;;9.03;100.00;100477.19;5065337;28;20058;-69
2023/04/21 04:43:49;;;;;;;11.30;7.70;;;;;;;9.06;100.00;100479.53;5058504;28;20032;-69
2023/04/21 04:46:16;;;;;;;11.88;7.75;;;;;;;9.10;100.00;100478.31;5063252;28;20025;-69
2023/04/21 04:48:41;;;;;;;9.88;7.75;;;;;;;9.11;100.00;100477.34;5052971;28;20349;-69
2023/04/21 04:51:06;;;;;;;9.77;7.90;;;;;;;9.18;100.00;100486.25;5066465;28;20036;-69
2023/04/21 04:53:32;;;;;;;11.27;6.95;;;;;;;9.22;100.00;100487.63;5066191;28;21323;-69
2023/04/21 04:55:58;;;;;;;10.00;7.60;;;;;;;9.31;100.00;100484.22;5063158;28;20064;-68
2023/04/21 04:58:23;;;;;;;10.13;8.75;;;;;;;9.38;100.00;100485.31;5060422;28;20031;-68
2023/04/21 05:00:51;;;;;;;11.07;8.43;;;;;;;9.41;100.00;100495.47;5060575;28;20028;-68
2023/04/21 05:03:17;;;;;;;14.57;10.00;;;;;;;9.46;100.00;100489.81;5057552;28;20024;-68
2023/04/21 05:05:44;;;;;;;12.77;9.60;;;;;;;9.53;100.00;100489.13;5061209;28;20511;-68
2023/04/21 05:08:09;;;;;;;16.45;12.10;;;;;;;9.53;100.00;100493.50;5068961;28;20047;-68
2023/04/21 05:10:35;;;;;;;14.02;9.93;;;;;;;9.58;100.00;100497.34;5064696;28;20376;-68
2023/04/21 05:13:00;;;;;;;12.80;8.85;;;;;;;9.67;100.00;100500.09;5073655;28;20044;-68
2023/04/21 05:15:25;;;;;;;14.63;10.45;;;;;;;9.74;100.00;100501.19;5068791;28;20133;-68
2023/04/21 05:17:51;;;;;;;10.93;8.65;;;;;;;9.82;100.00;100502.16;5066958;28;20043;-68
2023/04/21 05:20:16;;;;;;;9.65;7.95;;;;;;;9.93;100.00;100503.75;5061296;28;20033;-68
2023/04/21 05:22:42;;;;;;;9.80;8.25;;;;;;;10.00;100.00;100504.84;5068291;28;20476;-68
2023/04/21 05:25:10;;;;;;;10.90;8.10;;;;;;;9.99;100.00;100509.22;5065465;28;20721;-68
2023/04/21 05:27:35;;;;;;;11.35;7.28;;;;;;;10.01;100.00;100506.47;5067559;28;20033;-68
2023/04/21 05:30:01;;;;;;;11.68;7.30;;;;;;;10.03;100.00;100508.94;5067308;28;20051;-68
2023/04/21 05:32:26;;;;;;;11.40;7.60;;;;;;;10.09;100.00;100514.41;5065862;28;20033;-68
2023/04/21 05:34:52;;;;;;;24.42;11.38;;;;;;;10.18;100.00;100505.78;5068310;28;20032;-68
2023/04/21 05:37:17;;;;;;;24.13;12.93;;;;;;;10.24;100.00;100504.41;5067815;28;20029;-68
2023/04/21 05:39:42;;;;;;;22.08;12.20;;;;;;;10.31;100.00;100510.72;5070201;28;20025;-68
2023/04/21 05:42:10;;;;;;;19.67;11.73;;;;;;;10.39;100.00;100510.00;5069430;28;20021;-68
2023/04/21 05:44:35;;;;;;;17.50;10.35;;;;;;;10.49;100.00;100510.75;5069143;28;20115;-68
2023/04/21 05:47:02;;;;;;;18.80;10.52;;;;;;;10.56;100.00;100511.84;5065259;28;20555;-68
2023/04/21 05:49:28;;;;;;;16.52;10.23;;;;;;;10.66;100.00;100510.03;5066805;28;20021;-68
2023/04/21 05:51:53;;;;;;;14.85;9.15;;;;;;;10.77;100.00;100514.22;5066122;28;20096;-68
2023/04/21 05:54:19;;;;;;;20.88;10.80;;;;;;;10.83;100.00;100516.25;5063812;28;20029;-68
2023/04/21 05:56:44;;;;;;;16.25;9.60;;;;;;;10.89;100.00;100513.88;5065765;28;20024;-68
2023/04/21 05:59:10;;;;;;;18.25;9.40;;;;;;;10.93;100.00;100512.63;5068001;28;20040;-68
2023/04/21 06:01:36;;;;;;;15.27;8.95;;;;;;;10.95;100.00;100515.91;5068580;28;20426;-68
2023/04/21 06:04:01;;;;;;;13.20;9.45;;;;;;;10.96;100.00;100512.31;5068533;28;20143;-68
2023/04/21 06:06:27;;;;;;;14.13;10.48;;;;;;;11.04;100.00;100513.38;5069124;28;20029;-68
2023/04/21 06:08:52;;;;;;;16.52;10.18;;;;;;;11.07;100.00;100515.69;5069862;28;20357;-69
2023/04/21 06:11:18;;;;;;;13.68;10.20;;;;;;;11.11;100.00;100514.44;5064629;28;20025;-69
2023/04/21 06:13:43;;;;;;;16.40;8.75;;;;;;;11.15;100.00;100514.00;5068228;28;20467;-69
2023/04/21 06:16:09;;;;;;;16.88;10.48;;;;;;;11.23;100.00;100508.06;5068181;28;20430;-69
2023/04/21 06:18:34;;;;;;;18.33;9.77;;;;;;;11.27;100.00;100512.03;5068548;28;20056;-69
2023/04/21 06:21:00;;;;;;;12.32;9.38;;;;;;;11.29;100.00;100507.47;5068067;28;20028;-69
2023/04/21 06:23:25;;;;;;;12.40;9.50;;;;;;;11.37;100.00;100515.34;5066545;28;20040;-69
2023/04/21 06:26:03;;;;;;;12.95;8.77;;;;;;;11.45;100.00;100519.84;5049710;28;20051;-69
2023/04/21 06:28:28;;;;;;;10.52;8.00;;;;;;;11.56;100.00;100523.03;5068458;28;20043;-68
2023/04/21 06:30:53;;;;;;;12.32;8.05;;;;;;;11.69;100.00;100519.25;5068420;28;20111;-68
2023/04/21 06:33:19;;;;;;;15.32;8.25;;;;;;;11.79;100.00;100520.03;5068130;28;20111;-69
2023/04/21 06:35:44;;;;;;;13.65;8.40;;;;;;;11.88;100.00;100522.50;5072205;28;20115;-69
2023/04/21 06:38:10;;;;;;;15.90;8.35;;;;;;;11.95;100.00;100520.13;5065913;28;20039;-69
2023/04/21 06:40:35;;;;;;;14.23;9.25;;;;;;;12.03;100.00;100511.53;5077785;28;20032;-69
2023/04/21 06:43:00;;;;;;;15.68;9.13;;;;;;;12.04;100.00;100518.41;5071908;28;20060;-69
2023/04/21 06:45:26;;;;;;;12.07;8.27;;;;;;;12.09;100.00;100516.97;5071912;28;20032;-69
2023/04/21 06:47:51;;;;;;;13.52;9.05;;;;;;;12.22;100.00;100514.78;5075260;28;20105;-66
2023/04/21 06:50:17;;;;;;;18.20;8.85;;;;;;;12.38;100.00;100521.06;5052773;28;20104;-69
2023/04/21 06:52:42;;;;;;;9.75;7.70;;;;;;;12.53;100.00;100516.91;5071116;28;20024;-71
2023/04/21 06:55:08;;;;;;;11.85;7.95;;;;;;;12.66;100.00;100514.69;5068416;28;20119;-71
2023/04/21 06:57:33;;;;;;;13.38;7.95;;;;;;;12.78;100.00;100508.16;5071903;28;20040;-71
2023/04/21 06:59:59;;;;;;;12.40;7.10;;;;;;;12.89;100.00;100514.91;5072180;28;20028;-71
2023/04/21 07:02:24;;;;;;;11.07;7.13;;;;;;;12.99;100.00;100515.59;5071258;28;20025;-71
2023/04/21 07:04:49;;;;;;;12.95;6.65;;;;;;;13.10;100.00;100515.31;5067783;28;20048;-71
2023/04/21 07:07:15;;;;;;;11.15;6.68;;;;;;;13.18;100.00;100525.03;5073165;28;20526;-72
2023/04/21 07:09:40;;;;;;;11.95;5.93;;;;;;;13.33;100.00;100518.16;5073139;28;20114;-73
2023/04/21 07:12:06;;;;;;;7.20;4.72;;;;;;;13.43;100.00;100518.84;5073636;28;20064;-72
2023/04/21 07:14:31;;;;;;;7.97;4.60;;;;;;;13.48;100.00;100515.75;5070423;28;20036;-72
2023/04/21 07:16:56;;;;;;;7.85;4.47;;;;;;;13.57;100.00;100520.00;5069496;28;20029;-72
2023/04/21 07:19:22;;;;;;;13.13;4.95;;;;;;;13.65;100.00;100524.44;5048333;28;20481;-72
2023/04/21 07:21:47;;;;;;;11.07;5.28;;;;;;;13.71;100.00;100521.13;5069851;28;20063;-72
2023/04/21 07:24:13;;;;;;;10.30;5.47;;;;;;;13.72;100.00;100528.84;5069111;28;20480;-71
2023/04/21 07:26:38;;;;;;;10.13;5.90;;;;;;;13.78;100.00;100522.13;5072359;28;20113;-69
2023/04/21 07:29:05;;;;;;;13.13;5.55;;;;;;;13.88;100.00;100526.22;5067952;28;20090;-69
2023/04/21 07:31:30;;;;;;;11.55;5.18;;;;;;;14.00;100.00;100520.66;5065362;28;20096;-69
2023/04/21 07:33:55;;;;;;;13.65;5.05;;;;;;;14.08;100.00;100529.31;5064176;28;20047;-70
2023/04/21 07:36:21;;;;;;;8.90;4.68;;;;;;;14.17;100.00;100533.59;5067025;28;20029;-67
2023/04/21 07:38:46;;;;;;;9.00;4.65;;;;;;;14.30;100.00;100530.44;5069485;28;20443;-67
2023/04/21 07:41:12;;;;;;;8.57;4.72;;;;;;;14.43;100.00;100537.81;5069739;28;20439;-67
2023/04/21 07:43:39;;;;;;;8.00;3.90;;;;;;;14.51;100.00;100540.41;5069803;28;20037;-67
2023/04/21 07:46:05;;;;;;;11.27;3.67;;;;;;;14.56;100.00;100533.69;5074187;28;20031;-66
2023/04/21 07:48:30;;;;;;;2.67;2.38;;;;;;;14.58;100.00;100536.13;5065218;28;20134;-68
2023/04/21 07:50:57;;;;;;;7.43;2.90;;;;;;;14.63;100.00;100536.44;5072487;28;20430;-68
2023/04/21 07:53:23;;;;;;;5.25;3.22;;;;;;;14.74;100.00;100541.31;5062363;28;20129;-67
2023/04/21 07:55:49;;;;;;;8.55;4.15;;;;;;;14.77;99.18;100540.97;5064544;28;20020;-66
2023/04/21 07:58:15;;;;;;;6.82;3.22;;;;;;;14.73;98.91;100534.41;5059342;28;20171;-66
2023/04/21 08:00:41;;;;;;;5.43;3.70;;;;;;;14.69;98.08;100538.38;5071601;28;20127;-66
2023/04/21 08:03:06;;;;;;;4.35;3.13;;;;;;;14.66;97.15;100538.72;5070053;28;20056;-66
2023/04/21 08:05:32;;;;;;;5.15;3.13;;;;;;;14.73;97.30;100536.22;5068640;28;20043;-67
2023/04/21 08:07:57;;;;;;;5.65;3.17;;;;;;;14.74;97.20;100533.44;5065625;28;20070;-65
2023/04/21 08:10:23;;;;;;;5.55;3.33;;;;;;;14.76;97.14;100539.34;5070097;28;20241;-64
2023/04/21 08:12:49;;;;;;;6.75;3.70;;;;;;;14.80;95.59;100545.88;5070049;28;20028;-64
2023/04/21 08:15:15;;;;;;;10.55;5.25;;;;;;;14.91;96.36;100542.88;5070075;28;20353;-65
2023/04/21 08:17:40;;;;;;;5.72;3.97;;;;;;;15.01;94.54;100540.06;5069955;28;20043;-65
2023/04/21 08:20:06;;;;;;;3.95;3.10;;;;;;;15.11;89.27;100547.72;5071953;28;20036;-64
2023/04/21 08:22:32;;;;;;;4.32;2.88;;;;;;;15.21;86.63;100549.13;5070916;28;20054;-64
2023/04/21 08:24:57;;;;;;;6.55;3.30;;;;;;;15.37;88.02;100536.91;5069218;28;20036;-64
2023/04/21 08:27:23;;;;;;;4.55;3.20;;;;;;;15.39;87.82;100541.00;5069472;28;20400;-64
2023/04/21 08:29:49;;;;;;;3.15;2.55;;;;;;;15.60;84.85;100546.44;5068917;28;20044;-64
2023/04/21 08:32:15;;;;;;;4.55;2.42;;;;;;;15.85;80.63;100551.53;5069719;28;20032;-64
2023/04/21 08:34:41;;;;;;;2.75;2.40;;;;;;;16.36;77.94;100547.28;5070828;28;20122;-64
2023/04/21 08:37:07;;;;;;;3.28;2.45;;;;;;;16.77;76.00;100536.31;5071654;28;20472;-64
2023/04/21 08:39:32;;;;;;;5.82;2.45;;;;;;;16.59;75.04;100544.53;5066843;28;20032;-64
2023/04/21 08:42:00;;;;;;;4.53;2.65;;;;;;;16.42;74.27;100549.19;5064701;28;20033;-65
2023/04/21 08:44:25;;;;;;;3.72;2.38;;;;;;;16.34;73.92;100541.38;5069764;28;21006;-65
2023/04/21 08:46:53;;;;;;;4.93;3.03;;;;;;;16.23;74.06;100541.81;5069531;28;20024;-66
2023/04/21 08:49:20;;;;;;;3.53;1.95;;;;;;;16.22;72.99;100540.19;5069551;28;20036;-66
2023/04/21 08:51:46;;;;;;;2.45;2.10;;;;;;;16.18;73.89;100544.97;5068186;28;20076;-66
2023/04/21 08:54:12;;;;;;;4.13;2.05;;;;;;;16.29;75.88;100545.53;5066625;28;20036;-66
2023/04/21 08:56:39;;;;;;;4.75;1.95;;;;;;;16.26;75.19;100538.81;5068016;28;20073;-66
2023/04/21 08:59:04;;;;;;;5.88;2.10;;;;;;;16.27;74.64;100541.28;5069800;28;20644;-66
2023/04/21 09:01:30;;;;;;;3.05;2.55;;;;;;;16.28;74.68;100544.72;5069405;28;20036;-65
2023/04/21 09:04:16;;;;;;;2.35;1.73;;;;;;;16.21;66.69;100539.34;5065266;28;20036;-66
2023/04/21 09:06:45;;;;;;;3.13;2.15;;;;;;;16.29;72.42;100533.22;5067712;28;20044;-66
2023/04/21 09:09:10;;;;;;;2.50;1.75;;;;;;;16.38;70.41;100531.31;5062672;28;20037;-66
2023/04/21 09:11:36;;;;;;;4.05;2.30;;;;;;;16.46;70.95;100537.31;5067585;28;20040;-66
2023/04/21 09:14:01;;;;;;;2.83;2.10;;;;;;;16.58;71.40;100537.66;5070102;28;20040;-65
2023/04/21 09:16:32;;;;;;;2.45;2.08;;;;;;;16.71;69.47;100539.69;5069346;28;20020;-66
2023/04/21 09:18:58;;;;;;;1.98;1.65;;;;;;;16.69;68.77;100533.78;5069119;28;20029;-66
2023/04/21 09:21:27;;;;;;;4.53;2.38;;;;;;;16.75;67.85;100533.06;5067290;28;20433;-66
2023/04/21 09:23:54;;;;;;;5.43;2.13;;;;;;;16.83;68.20;100531.16;5064995;28;20097;-66
2023/04/21 09:26:23;;;;;;;2.50;2.13;;;;;;;16.90;68.16;100532.06;5070073;28;20048;-66
2023/04/21 09:28:51;;;;;;;4.65;1.85;;;;;;;17.04;67.12;100529.56;5069598;28;20028;-66
2023/04/21 09:31:23;;;;;;;3.10;1.50;;;;;;;17.16;64.75;100528.06;5069214;28;20314;-66
2023/04/21 09:33:57;;;;;;;2.28;1.45;;;;;;;17.16;65.70;100528.91;5066768;28;20492;-66
2023/04/21 09:36:26;;;;;;;3.78;1.88;;;;;;;17.18;67.50;100534.78;5067749;28;20035;-66
2023/04/21 09:38:58;;;;;;;3.65;1.70;;;;;;;17.20;67.66;100537.25;5066978;28;20070;-66
2023/04/21 09:41:24;;;;;;;7.00;1.85;;;;;;;17.21;67.56;100529.16;5066526;28;20484;-66
2023/04/21 09:43:50;;;;;;;3.00;1.80;;;;;;;17.38;64.99;100527.13;5074300;28;20038;-66
2023/04/21 09:46:17;;;;;;;3.28;1.27;;;;;;;17.43;63.75;100530.00;5074371;28;20040;-65
2023/04/21 09:48:44;;;;;;;2.50;1.40;;;;;;;17.38;64.27;100524.47;5064575;28;20036;-66
2023/04/21 09:51:11;;;;;;;3.47;1.35;;;;;;;17.44;64.81;100530.81;5066920;28;20036;-65
2023/04/21 09:53:39;;;;;;;2.50;1.42;;;;;;;17.58;64.24;100528.09;5061966;28;20031;-65
2023/04/21 09:56:13;;;;;;;2.10;1.63;;;;;;;17.60;63.53;100522.66;5062418;28;20353;-65
2023/04/21 09:58:52;;;;;;;3.22;1.25;;;;;;;17.45;58.86;100529.81;5063859;28;20044;-65
2023/04/21 10:01:18;;;;;;;2.75;1.60;;;;;;;17.49;64.72;100520.50;5070091;28;20028;-65
2023/04/21 10:03:47;;;;;;;3.45;1.65;;;;;;;17.58;64.39;100519.38;5068553;28;20036;-65
2023/04/21 10:06:12;;;;;;;3.65;1.27;;;;;;;17.68;64.72;100525.19;5065520;28;20049;-66
2023/04/21 10:08:39;;;;;;;2.42;1.85;;;;;;;17.91;64.22;100519.72;5061535;28;20047;-65
2023/04/21 10:11:05;;;;;;;3.97;1.25;;;;;;;18.00;62.13;100526.44;5059784;28;20032;-65
2023/04/21 10:13:32;;;;;;;2.17;1.50;;;;;;;17.97;63.35;100523.38;5069803;28;20036;-66
2023/04/21 10:16:06;;;;;;;2.75;1.98;;;;;;;18.08;61.28;100521.03;5066583;28;20042;-66
2023/04/21 10:18:43;;;;;;;4.93;2.45;;;;;;;18.31;63.73;100520.81;5056617;28;20028;-66
2023/04/21 10:21:20;;;;;;;8.90;3.28;;;;;;;18.35;61.46;100522.06;5070449;28;20029;-65
2023/04/21 10:23:47;;;;;;;2.75;1.45;;;;;;;18.45;63.16;100517.22;5058383;28;20041;-66
2023/04/21 10:26:23;;;;;;;3.83;1.60;;;;;;;18.49;60.17;100520.28;5061200;28;20033;-70
2023/04/21 10:29:05;;;;;;;1.88;1.38;;;;;;;18.64;61.24;100514.91;5070103;28;20038;-70
2023/04/21 10:31:42;;;;;;;4.20;1.50;;;;;;;18.74;63.57;100510.09;5067635;28;20036;-69
2023/04/21 10:34:08;;;;;;;1.92;1.40;;;;;;;18.57;63.09;100514.84;5068193;28;20028;-70
2023/04/21 10:36:48;;;;;;;1.60;1.35;;;;;;;18.39;61.87;100511.94;5065569;28;20027;-69
2023/04/21 10:39:35;;;;;;;2.92;1.17;;;;;;;18.44;60.27;100504.22;5070158;28;20127;-70
2023/04/21 10:42:12;;;;;;;2.30;1.13;;;;;;;18.44;59.91;100509.50;5065513;28;20119;-69
2023/04/21 10:44:52;;;;;;;2.47;1.42;;;;;;;18.36;58.72;100510.50;5061737;28;20041;-70
2023/04/21 10:47:42;;;;;;;5.47;1.80;;;;;;;18.51;61.17;100507.72;5061602;28;20119;-70
2023/04/21 10:50:17;;;;;;;2.58;1.75;;;;;;;18.69;60.70;100502.75;5060046;28;20044;-69
2023/04/21 10:52:44;;;;;;;2.55;1.52;;;;;;;18.51;61.27;100505.06;5067856;28;20039;-67
2023/04/21 10:55:11;;;;;;;2.67;1.75;;;;;;;18.46;61.76;100505.66;5062049;28;20032;-67
2023/04/21 10:57:41;;;;;;;3.30;3.00;;;;;;;18.52;60.81;100501.44;5067779;28;20024;-67
2023/04/21 11:00:08;;;;;;;2.92;1.45;;;;;;;18.26;60.99;100502.09;5063453;28;20033;-67
2023/04/21 11:02:34;;;;;;;6.43;2.90;;;;;;;18.02;61.11;100500.72;5066627;28;20031;-66
2023/04/21 11:05:00;;;;;;;2.90;1.95;;;;;;;17.90;60.17;100502.28;5066562;28;20047;-67
2023/04/21 11:07:26;;;;;;;5.05;1.65;;;;;;;18.07;60.13;100493.06;5050281;28;20397;-67
2023/04/21 11:10:03;;;;;;;4.20;1.60;;;;;;;18.12;56.16;100490.66;5067767;28;20029;-69
2023/04/21 11:12:31;;;;;;;6.45;1.48;;;;;;;18.11;57.72;100486.38;5067684;28;20036;-68
2023/04/21 11:14:57;;;;;;;2.67;1.67;;;;;;;18.16;57.29;100489.25;5065341;28;20039;-69
2023/04/21 11:17:23;;;;;;;4.95;2.13;;;;;;;18.21;59.56;100488.69;5067514;28;20469;-68